Time;durP1;ratioP1;P1;durP2;ratioP2;P2;SDS_P1;SDS_P2;PMS_P1;PMS_P2;Temp;Humidity;BMP_temperature;BMP_pressure;BME280_temperature;BME280_humidity;BME280_pressure;Samples;Min_cycle;Max_cycle;Signal;HPM_P1;HPM_P2
2022/11/11 00:02:25;;;;;;;42.03;27.02;;;11.10;88.70;;;;;;5027153;28;20029;-78
2022/11/11 00:04:51;;;;;;;41.92;26.95;;;11.00;88.70;;;;;;5010823;28;20022;-78
2022/11/11 00:07:16;;;;;;;41.50;28.48;;;11.10;88.80;;;;;;5030333;28;20022;-77
2022/11/11 00:09:42;;;;;;;37.47;26.55;;;11.00;88.80;;;;;;5029404;28;20366;-78
2022/11/11 00:12:07;;;;;;;39.05;27.77;;;11.00;88.90;;;;;;5012641;28;20029;-77
2022/11/11 00:14:33;;;;;;;36.92;27.27;;;11.00;89.00;;;;;;5013023;28;20045;-76
2022/11/11 00:25:15;;;;;;;40.33;27.87;;;11.00;88.90;;;;;;5050080;28;20064;-77
2022/11/11 00:27:41;;;;;;;38.85;25.65;;;11.00;88.80;;;;;;5044621;28;20287;-77
2022/11/11 00:30:07;;;;;;;42.42;26.42;;;11.00;88.90;;;;;;5048395;28;20433;-76
2022/11/11 00:32:33;;;;;;;42.75;26.65;;;11.00;88.90;;;;;;5050229;28;20017;-75
2022/11/11 00:37:47;;;;;;;42.90;27.15;;;11.00;89.10;;;;;;5047355;28;20044;-76
2022/11/11 00:40:13;;;;;;;41.50;27.50;;;11.00;89.10;;;;;;5031669;28;20052;-75
2022/11/11 00:42:40;;;;;;;38.13;28.25;;;10.90;89.00;;;;;;5032084;28;20095;-79
2022/11/11 00:45:06;;;;;;;41.83;28.75;;;11.00;89.00;;;;;;5032179;28;20025;-76
2022/11/11 00:53:04;;;;;;;39.85;27.17;;;11.00;89.10;;;;;;5047469;28;20132;-75
2022/11/11 00:55:29;;;;;;;36.45;26.55;;;10.90;89.10;;;;;;5032595;28;20024;-76
2022/11/11 00:57:55;;;;;;;40.17;26.80;;;10.90;89.00;;;;;;5050697;28;20440;-78
2022/11/11 01:00:21;;;;;;;37.90;25.98;;;11.00;89.00;;;;;;5037522;28;20132;-78
2022/11/11 01:02:46;;;;;;;37.20;26.13;;;11.00;88.90;;;;;;5044072;28;20089;-80
2022/11/11 01:05:12;;;;;;;37.05;25.58;;;11.00;88.90;;;;;;5051377;28;20027;-75
2022/11/11 01:07:38;;;;;;;42.85;27.70;;;11.00;89.00;;;;;;5031587;28;20029;-82
2022/11/11 01:10:03;;;;;;;37.63;25.08;;;11.00;89.00;;;;;;5030917;28;22218;-75
2022/11/11 01:12:29;;;;;;;43.10;27.88;;;11.00;89.00;;;;;;5047551;28;20033;-82
2022/11/11 01:14:55;;;;;;;37.33;26.23;;;11.00;89.00;;;;;;5032048;28;20052;-77
2022/11/11 01:17:20;;;;;;;37.35;25.27;;;11.00;88.90;;;;;;5048015;28;20804;-75
2022/11/11 01:19:46;;;;;;;39.38;25.02;;;11.00;88.90;;;;;;5028429;28;20032;-77
2022/11/11 01:22:12;;;;;;;40.22;25.40;;;11.00;88.80;;;;;;5012760;28;20025;-75
2022/11/11 01:24:37;;;;;;;36.50;25.75;;;11.00;88.80;;;;;;5012680;28;20036;-75
2022/11/11 01:27:03;;;;;;;35.30;24.45;;;10.90;88.80;;;;;;5027537;28;20049;-75
2022/11/11 01:29:29;;;;;;;36.97;25.15;;;10.90;88.90;;;;;;5031320;28;20381;-76
2022/11/11 01:31:54;;;;;;;35.78;24.55;;;10.90;88.80;;;;;;5031184;28;20169;-77
2022/11/11 01:34:20;;;;;;;36.42;25.25;;;10.90;88.90;;;;;;5030552;28;20029;-75
2022/11/11 01:36:46;;;;;;;33.88;24.23;;;10.90;88.80;;;;;;5008664;28;20312;-75
2022/11/11 01:39:11;;;;;;;37.20;24.00;;;10.90;88.70;;;;;;5027788;28;20108;-75
2022/11/11 01:41:37;;;;;;;42.58;25.83;;;10.80;88.80;;;;;;5011624;28;20112;-75
2022/11/11 01:44:12;;;;;;;39.65;24.73;;;10.90;88.70;;;;;;5032463;28;20382;-75
2022/11/11 01:47:03;;;;;;;35.65;24.10;;;10.90;88.80;;;;;;5031711;28;20045;-75
2022/11/11 01:49:50;;;;;;;37.15;24.90;;;10.90;88.70;;;;;;5018182;28;20032;-75
2022/11/11 01:52:24;;;;;;;36.78;24.67;;;10.80;88.70;;;;;;5013135;28;20231;-75
2022/11/11 01:55:07;;;;;;;37.60;25.52;;;10.80;88.80;;;;;;5026780;28;20025;-75
2022/11/11 01:57:49;;;;;;;36.00;23.10;;;10.80;88.70;;;;;;5018356;28;20057;-76
2022/11/11 02:00:17;;;;;;;31.20;22.95;;;10.80;88.80;;;;;;5015561;28;20045;-76
2022/11/11 02:03:08;;;;;;;34.88;23.30;;;10.80;88.80;;;;;;5018035;28;20373;-75
2022/11/11 02:05:44;;;;;;;38.53;24.42;;;10.80;88.80;;;;;;4997527;28;20029;-75
2022/11/11 02:08:30;;;;;;;35.08;23.98;;;10.80;88.70;;;;;;5024521;28;20057;-75
2022/11/11 02:11:06;;;;;;;36.47;24.42;;;10.80;88.70;;;;;;5024482;28;20021;-80
2022/11/11 02:16:17;;;;;;;39.85;25.65;;;10.80;88.70;;;;;;5028340;28;20120;-74
2022/11/11 02:18:43;;;;;;;36.22;24.63;;;10.80;88.70;;;;;;5023856;28;20026;-75
2022/11/11 02:21:15;;;;;;;40.63;25.20;;;10.70;88.60;;;;;;5041310;28;20044;-81
2022/11/11 02:23:47;;;;;;;36.33;23.73;;;10.70;88.50;;;;;;5030243;28;20033;-75
2022/11/11 02:26:16;;;;;;;35.85;23.13;;;10.70;88.60;;;;;;5016352;28;20018;-76
2022/11/11 02:28:43;;;;;;;37.83;24.10;;;10.70;88.60;;;;;;5030397;28;20033;-76
2022/11/11 02:31:08;;;;;;;33.92;24.33;;;10.70;88.50;;;;;;5028975;28;20036;-75
2022/11/11 02:33:34;;;;;;;34.72;23.70;;;10.70;88.60;;;;;;5048501;28;20350;-75
2022/11/11 02:36:01;;;;;;;35.72;23.67;;;10.60;88.50;;;;;;5030537;28;20157;-80
2022/11/11 02:38:28;;;;;;;35.28;23.73;;;10.60;88.60;;;;;;5028413;28;20187;-75
2022/11/11 02:43:38;;;;;;;36.13;24.83;;;10.60;88.70;;;;;;5044367;28;20476;-78
2022/11/11 02:46:06;;;;;;;36.97;25.38;;;10.50;88.70;;;;;;5037080;28;20024;-76
2022/11/11 02:48:32;;;;;;;35.22;24.85;;;10.50;88.70;;;;;;5042745;28;20142;-75
2022/11/11 02:50:57;;;;;;;32.85;23.00;;;10.60;88.70;;;;;;5030646;28;20037;-75
2022/11/11 02:53:23;;;;;;;35.90;25.65;;;10.50;88.60;;;;;;5029084;28;20467;-75
2022/11/11 02:55:49;;;;;;;32.67;24.23;;;10.50;88.80;;;;;;5048199;28;20044;-80
2022/11/11 02:58:15;;;;;;;39.58;24.95;;;10.50;88.80;;;;;;5029300;28;20055;-76
2022/11/11 03:00:41;;;;;;;35.03;23.83;;;10.40;88.80;;;;;;5047634;28;20536;-76
2022/11/11 03:03:08;;;;;;;36.72;24.90;;;10.40;88.80;;;;;;5046742;28;20032;-77
2022/11/11 03:05:34;;;;;;;31.83;23.50;;;10.40;88.90;;;;;;5047159;28;20025;-76
2022/11/11 03:07:59;;;;;;;39.63;25.60;;;10.40;88.90;;;;;;5047684;28;20496;-76
2022/11/11 03:10:25;;;;;;;34.80;25.13;;;10.40;88.80;;;;;;5047285;28;20030;-76
2022/11/11 03:12:50;;;;;;;36.42;24.85;;;10.40;88.80;;;;;;5047902;28;20408;-76
2022/11/11 03:15:16;;;;;;;33.13;23.88;;;10.50;88.80;;;;;;5046741;28;20025;-78
2022/11/11 03:17:42;;;;;;;34.53;23.73;;;10.40;88.80;;;;;;5030479;28;20406;-78
2022/11/11 03:23:07;;;;;;;36.28;25.20;;;10.40;88.90;;;;;;5032954;28;20476;-77
2022/11/11 03:25:37;;;;;;;37.58;25.35;;;10.30;88.90;;;;;;5024468;28;20034;-75
2022/11/11 03:28:19;;;;;;;40.90;24.48;;;10.30;88.90;;;;;;5025597;28;20108;-77
2022/11/11 03:30:47;;;;;;;36.08;24.83;;;10.30;88.90;;;;;;5026031;28;20107;-75
2022/11/11 03:33:14;;;;;;;36.88;24.00;;;10.30;88.80;;;;;;5025668;28;20037;-76
2022/11/11 03:35:40;;;;;;;36.78;25.13;;;10.20;88.90;;;;;;5021064;28;20034;-75
2022/11/11 03:38:14;;;;;;;35.33;24.73;;;10.20;88.90;;;;;;5026862;28;20469;-75
2022/11/11 03:40:44;;;;;;;34.95;24.40;;;10.20;88.90;;;;;;5031305;28;20064;-74
2022/11/11 03:43:14;;;;;;;38.25;24.55;;;10.20;88.90;;;;;;5031410;28;20037;-78
2022/11/11 03:45:40;;;;;;;33.95;24.98;;;10.20;88.90;;;;;;5031731;28;20095;-78
2022/11/11 03:48:06;;;;;;;35.83;25.88;;;10.20;88.90;;;;;;5029735;28;20051;-83
2022/11/11 03:50:32;;;;;;;36.75;25.55;;;10.20;88.80;;;;;;5024644;28;20041;-77
2022/11/11 03:52:58;;;;;;;33.65;25.23;;;10.20;88.90;;;;;;5018105;28;20117;-79
2022/11/11 03:55:24;;;;;;;39.13;26.35;;;10.10;89.00;;;;;;5030872;28;20101;-79
2022/11/11 03:57:49;;;;;;;38.50;26.42;;;10.10;89.10;;;;;;5031802;28;20103;-79
2022/11/11 04:00:19;;;;;;;36.80;25.73;;;10.10;89.10;;;;;;5028953;28;20034;-76
2022/11/11 04:11:11;;;;;;;33.90;25.55;;;10.10;89.00;;;;;;5019620;28;20048;-77
2022/11/11 04:16:22;;;;;;;38.05;26.17;;;10.20;89.00;;;;;;5024862;28;20052;-76
2022/11/11 04:21:44;;;;;;;37.40;26.57;;;10.10;89.00;;;;;;5047590;28;20052;-77
2022/11/11 04:26:58;;;;;;;39.80;26.90;;;10.10;89.00;;;;;;5045913;28;20037;-76
2022/11/11 04:29:27;;;;;;;36.80;25.77;;;10.10;89.10;;;;;;5050229;28;20029;-75
2022/11/11 04:34:50;;;;;;;35.33;24.17;;;10.10;89.10;;;;;;5044352;28;20040;-77
2022/11/11 04:37:17;;;;;;;35.25;25.17;;;10.10;89.10;;;;;;5031273;28;20041;-75
2022/11/11 04:42:28;;;;;;;39.15;26.15;;;10.00;89.10;;;;;;5046811;28;20063;-77
2022/11/11 04:47:52;;;;;;;36.17;27.38;;;10.10;89.10;;;;;;5050306;28;20174;-76
2022/11/11 04:50:18;;;;;;;39.55;25.77;;;10.10;89.10;;;;;;5030650;28;20124;-75
2022/11/11 04:52:43;;;;;;;35.20;25.45;;;10.10;89.10;;;;;;5031750;28;20568;-76
2022/11/11 04:57:53;;;;;;;34.42;25.25;;;10.10;89.00;;;;;;5050073;28;20059;-80
2022/11/11 05:00:19;;;;;;;37.20;26.17;;;10.00;89.00;;;;;;5047968;28;20065;-76
2022/11/11 05:10:58;;;;;;;37.33;24.77;;;10.00;88.70;;;;;;5050033;28;20091;-78
2022/11/11 05:22:00;;;;;;;37.58;26.20;;;9.90;88.90;;;;;;5043266;28;20052;-75
2022/11/11 05:27:10;;;;;;;37.53;26.98;;;9.80;89.00;;;;;;5044943;28;20043;-76
2022/11/11 05:29:36;;;;;;;35.63;25.55;;;9.80;89.00;;;;;;5048925;28;20017;-76
2022/11/11 05:32:02;;;;;;;37.15;26.10;;;9.80;89.10;;;;;;5031005;28;20049;-76
2022/11/11 05:34:27;;;;;;;34.17;24.77;;;9.80;89.10;;;;;;5049468;28;20048;-76
2022/11/11 05:36:53;;;;;;;36.15;25.23;;;9.80;89.10;;;;;;5031504;28;20034;-76
2022/11/11 05:39:18;;;;;;;36.42;25.58;;;9.80;89.00;;;;;;5069405;28;20504;-79
2022/11/11 05:41:44;;;;;;;33.20;24.80;;;9.80;88.90;;;;;;5038043;28;20461;-75
2022/11/11 05:44:10;;;;;;;33.65;25.13;;;9.70;89.00;;;;;;5025428;28;20048;-75
2022/11/11 05:46:35;;;;;;;34.08;24.92;;;9.80;89.10;;;;;;5044123;28;20033;-80
2022/11/11 05:49:16;;;;;;;35.08;24.35;;;9.80;89.10;;;;;;5029721;28;20120;-77
2022/11/11 05:51:43;;;;;;;33.63;25.17;;;9.80;89.10;;;;;;5030754;28;20068;-76
2022/11/11 05:54:09;;;;;;;34.72;23.73;;;9.70;89.10;;;;;;5027474;28;20022;-76
2022/11/11 05:56:35;;;;;;;35.33;25.15;;;9.80;89.10;;;;;;5031123;28;20102;-85
2022/11/11 05:59:00;;;;;;;34.67;24.52;;;9.80;89.20;;;;;;5022905;28;20488;-76
2022/11/11 06:01:26;;;;;;;32.47;25.50;;;9.70;89.10;;;;;;5037320;28;20033;-79
2022/11/11 06:03:52;;;;;;;36.95;25.25;;;9.80;89.20;;;;;;5042695;28;20034;-79
2022/11/11 06:06:18;;;;;;;30.50;23.08;;;9.80;89.20;;;;;;5045154;28;20028;-77
2022/11/11 06:08:44;;;;;;;32.63;23.70;;;9.80;89.20;;;;;;5048513;28;20484;-79
2022/11/11 06:11:10;;;;;;;30.13;23.35;;;9.80;89.00;;;;;;5047741;28;20048;-76
2022/11/11 06:13:35;;;;;;;30.25;23.23;;;9.80;89.20;;;;;;5027646;28;20032;-75
2022/11/11 06:16:02;;;;;;;30.83;23.60;;;9.80;89.10;;;;;;5045888;28;20449;-77
2022/11/11 06:18:27;;;;;;;30.83;21.58;;;9.80;89.00;;;;;;5048960;28;20025;-76
2022/11/11 06:20:54;;;;;;;31.75;22.65;;;9.70;89.00;;;;;;5044125;28;20057;-76
2022/11/11 06:23:20;;;;;;;31.13;22.38;;;9.70;89.00;;;;;;5028850;28;20025;-77
2022/11/11 06:28:30;;;;;;;29.58;20.45;;;9.70;89.00;;;;;;5026377;28;20060;-77
2022/11/11 06:30:56;;;;;;;26.77;20.45;;;9.70;89.00;;;;;;5024309;28;20033;-75
2022/11/11 06:33:21;;;;;;;29.02;21.58;;;9.70;89.10;;;;;;5022270;28;20180;-80
2022/11/11 06:35:47;;;;;;;27.52;21.15;;;9.70;89.00;;;;;;5027045;28;20022;-78
2022/11/11 06:38:13;;;;;;;29.05;21.17;;;9.70;89.00;;;;;;5032581;28;20402;-75
2022/11/11 06:40:40;;;;;;;30.63;21.98;;;9.70;89.10;;;;;;5030531;28;20041;-76
2022/11/11 06:43:06;;;;;;;29.73;21.42;;;9.70;89.10;;;;;;5030062;28;20474;-78
2022/11/11 06:45:34;;;;;;;31.83;21.80;;;9.70;89.10;;;;;;5021410;28;20025;-84
2022/11/11 06:48:00;;;;;;;31.02;22.85;;;9.70;89.20;;;;;;5023350;28;20047;-82
2022/11/11 06:50:25;;;;;;;29.98;22.45;;;9.70;89.20;;;;;;5026987;28;20038;-75
2022/11/11 06:52:51;;;;;;;33.85;23.85;;;9.70;89.30;;;;;;5027215;28;20033;-76
2022/11/11 06:55:17;;;;;;;34.20;23.63;;;9.70;89.20;;;;;;5025677;28;20124;-76
2022/11/11 06:57:43;;;;;;;28.33;22.52;;;9.70;89.10;;;;;;5026621;28;20048;-78
2022/11/11 07:00:09;;;;;;;31.33;23.20;;;9.70;89.20;;;;;;5059469;28;20025;-76
2022/11/11 07:02:35;;;;;;;33.65;23.92;;;9.60;89.20;;;;;;5021777;28;20351;-81
2022/11/11 07:05:01;;;;;;;30.45;21.48;;;9.60;89.20;;;;;;5027279;28;20048;-77
2022/11/11 07:07:27;;;;;;;29.55;21.52;;;9.60;89.10;;;;;;5026834;28;20075;-83
2022/11/11 07:09:54;;;;;;;31.40;21.27;;;9.60;88.90;;;;;;5027559;28;20374;-76
2022/11/11 07:12:20;;;;;;;27.63;21.63;;;9.60;89.00;;;;;;5027605;28;20030;-76
2022/11/11 07:14:46;;;;;;;30.45;21.17;;;9.60;89.10;;;;;;5033898;28;20033;-76
2022/11/11 07:17:12;;;;;;;29.08;21.60;;;9.60;89.00;;;;;;5036082;28;20091;-76
2022/11/11 07:19:37;;;;;;;27.20;20.58;;;9.60;89.10;;;;;;5033200;28;20025;-76
2022/11/11 07:22:03;;;;;;;29.00;20.40;;;9.60;89.00;;;;;;5051239;28;20102;-78
2022/11/11 07:24:29;;;;;;;23.60;19.05;;;9.60;89.00;;;;;;5033189;28;20028;-80
2022/11/11 07:26:54;;;;;;;25.80;18.42;;;9.60;88.90;;;;;;5033606;28;20067;-76
2022/11/11 07:29:20;;;;;;;25.13;18.65;;;9.60;88.90;;;;;;5029778;28;20032;-76
2022/11/11 07:31:46;;;;;;;26.88;17.85;;;9.60;88.90;;;;;;5051636;28;20155;-76
2022/11/11 07:34:11;;;;;;;25.00;17.27;;;9.60;88.70;;;;;;5033356;28;20037;-77
2022/11/11 07:36:37;;;;;;;26.30;18.60;;;9.70;88.70;;;;;;5050338;28;20047;-76
2022/11/11 07:39:02;;;;;;;23.33;17.73;;;9.70;88.60;;;;;;5029911;28;20032;-78
2022/11/11 07:41:28;;;;;;;23.70;18.70;;;9.60;88.50;;;;;;5033410;28;20508;-76
2022/11/11 07:43:54;;;;;;;25.55;18.10;;;9.70;88.40;;;;;;5033340;28;20502;-76
2022/11/11 07:46:19;;;;;;;25.42;19.80;;;9.60;88.50;;;;;;5051362;28;20045;-78
2022/11/11 07:48:45;;;;;;;21.40;16.25;;;9.70;88.30;;;;;;5050476;28;20029;-77
2022/11/11 07:51:11;;;;;;;22.92;17.38;;;9.60;88.40;;;;;;5048773;28;20393;-76
2022/11/11 07:53:36;;;;;;;21.83;17.05;;;9.70;88.40;;;;;;5046027;28;20052;-76
2022/11/11 07:56:02;;;;;;;24.80;16.52;;;9.70;88.50;;;;;;5049427;28;20036;-77
2022/11/11 07:58:27;;;;;;;23.10;17.30;;;9.70;88.40;;;;;;5042953;28;20102;-78
2022/11/11 08:00:53;;;;;;;22.63;16.65;;;9.70;88.30;;;;;;5051257;28;20057;-78
2022/11/11 08:03:19;;;;;;;23.08;16.30;;;9.70;88.30;;;;;;5028363;28;20103;-78
2022/11/11 08:05:44;;;;;;;21.58;17.38;;;9.80;88.30;;;;;;5022148;28;20049;-75
2022/11/11 08:08:10;;;;;;;23.98;16.85;;;9.80;88.10;;;;;;5028722;28;20045;-79
2022/11/11 08:10:36;;;;;;;21.60;16.15;;;9.80;88.00;;;;;;5032180;28;20039;-78
2022/11/11 08:15:47;;;;;;;21.50;15.93;;;9.80;88.00;;;;;;5051015;28;20052;-76
2022/11/11 08:18:13;;;;;;;22.50;15.65;;;9.90;87.90;;;;;;5052365;28;20025;-80
2022/11/11 08:20:39;;;;;;;19.45;15.13;;;9.90;87.90;;;;;;5040844;28;20368;-76
2022/11/11 08:23:09;;;;;;;20.73;15.32;;;9.90;87.70;;;;;;5043668;28;20537;-76
2022/11/11 08:25:35;;;;;;;20.15;14.85;;;9.90;87.60;;;;;;5034401;28;20032;-76
2022/11/11 08:28:02;;;;;;;17.83;14.68;;;9.90;87.70;;;;;;5036329;28;20372;-81
2022/11/11 08:30:28;;;;;;;20.95;14.63;;;9.90;87.90;;;;;;5031238;28;20471;-77
2022/11/11 08:32:57;;;;;;;19.58;15.57;;;9.90;87.70;;;;;;5049922;28;20128;-77
2022/11/11 08:35:23;;;;;;;21.98;15.40;;;9.90;87.50;;;;;;5031978;28;20252;-77
2022/11/11 08:37:49;;;;;;;19.65;15.35;;;10.00;87.40;;;;;;5050277;28;20480;-78
2022/11/11 08:40:17;;;;;;;19.70;14.90;;;10.10;87.10;;;;;;5032599;28;20373;-76
2022/11/11 08:42:43;;;;;;;21.10;14.73;;;10.00;87.10;;;;;;5049341;28;20052;-77
2022/11/11 08:45:09;;;;;;;18.08;13.13;;;10.10;87.10;;;;;;5047952;28;20041;-77
2022/11/11 08:47:35;;;;;;;19.15;13.27;;;10.00;86.80;;;;;;5050103;28;20029;-77
2022/11/11 08:50:02;;;;;;;20.05;13.00;;;10.00;86.70;;;;;;5048746;28;20088;-78
2022/11/11 08:52:28;;;;;;;19.25;13.43;;;10.10;86.50;;;;;;5047249;28;20032;-78
2022/11/11 08:54:53;;;;;;;19.75;12.95;;;10.10;86.00;;;;;;5031298;28;20032;-77
2022/11/11 08:57:19;;;;;;;18.20;12.60;;;10.10;85.80;;;;;;5029248;28;20025;-77
2022/11/11 08:59:44;;;;;;;15.60;13.30;;;10.20;85.80;;;;;;5037887;28;20087;-77
2022/11/11 09:02:11;;;;;;;15.00;12.63;;;10.30;85.80;;;;;;5041168;28;20041;-78
2022/11/11 09:04:38;;;;;;;18.50;13.50;;;10.40;85.60;;;;;;5045014;28;20017;-78
2022/11/11 09:07:04;;;;;;;19.35;14.73;;;10.40;85.60;;;;;;5043609;28;20165;-78
2022/11/11 09:09:30;;;;;;;19.60;15.02;;;10.50;85.60;;;;;;5040260;28;20044;-79
2022/11/11 09:11:55;;;;;;;19.33;15.18;;;10.50;85.30;;;;;;5045395;28;20037;-79
2022/11/11 09:14:21;;;;;;;21.15;15.40;;;10.50;85.30;;;;;;5038276;28;20516;-77
2022/11/11 09:16:47;;;;;;;18.63;14.60;;;10.50;84.90;;;;;;5037535;28;20033;-77
2022/11/11 09:19:12;;;;;;;16.95;13.63;;;10.50;84.90;;;;;;5039514;28;20117;-78
2022/11/11 09:21:38;;;;;;;19.10;14.15;;;10.40;84.60;;;;;;5049830;28;20144;-77
2022/11/11 09:24:04;;;;;;;18.77;14.05;;;10.40;84.70;;;;;;5031210;28;20360;-75
2022/11/11 09:26:29;;;;;;;21.38;15.70;;;10.40;84.90;;;;;;5046949;28;20425;-77
2022/11/11 09:28:55;;;;;;;19.92;15.30;;;10.50;84.60;;;;;;5030961;28;20106;-78
2022/11/11 09:31:22;;;;;;;21.20;15.68;;;10.60;84.50;;;;;;5044701;28;20053;-78
2022/11/11 09:33:51;;;;;;;19.08;14.80;;;10.60;84.50;;;;;;5030951;28;20393;-79
2022/11/11 09:36:17;;;;;;;19.83;16.40;;;10.70;84.60;;;;;;5022542;28;20196;-78
2022/11/11 09:38:42;;;;;;;20.00;15.48;;;10.80;84.20;;;;;;5052280;28;20067;-76
2022/11/11 09:41:38;;;;;;;19.65;15.07;;;10.90;83.70;;;;;;5044680;28;20033;-78
2022/11/11 09:44:04;;;;;;;22.17;15.13;;;10.90;83.60;;;;;;5044474;28;20033;-78
2022/11/11 09:46:44;;;;;;;20.48;14.73;;;11.00;83.30;;;;;;5039250;28;20040;-78
2022/11/11 09:49:31;;;;;;;19.17;14.93;;;11.00;83.50;;;;;;5045557;28;20033;-77
2022/11/11 09:52:04;;;;;;;19.95;15.77;;;11.10;83.40;;;;;;5043019;28;20037;-78
2022/11/11 09:54:51;;;;;;;20.98;15.85;;;11.10;83.10;;;;;;5028387;28;20053;-77
2022/11/11 09:57:40;;;;;;;23.20;15.45;;;11.10;82.70;;;;;;5022331;28;20110;-77
2022/11/11 10:00:19;;;;;;;24.55;16.33;;;11.10;83.00;;;;;;5045067;28;20030;-78
2022/11/11 10:03:17;;;;;;;21.65;16.55;;;11.10;82.80;;;;;;5024400;28;20034;-78
2022/11/11 10:05:56;;;;;;;21.63;16.73;;;11.10;82.90;;;;;;5028009;28;20033;-78
2022/11/11 10:08:28;;;;;;;20.23;16.50;;;11.20;82.90;;;;;;5028430;28;20025;-77
2022/11/11 10:10:58;;;;;;;21.08;16.77;;;11.30;83.20;;;;;;5044712;28;20033;-76
2022/11/11 10:13:36;;;;;;;22.10;16.65;;;11.30;82.80;;;;;;5042361;28;20080;-81
2022/11/11 10:16:52;;;;;;;22.92;16.13;;;11.40;82.70;;;;;;5021072;28;20025;-76
2022/11/11 10:19:46;;;;;;;21.02;15.77;;;11.40;82.70;;;;;;4972096;28;20061;-87
2022/11/11 10:22:29;;;;;;;19.27;16.37;;;11.50;82.60;;;;;;5047124;28;20132;-81
2022/11/11 10:25:01;;;;;;;21.58;16.77;;;11.60;81.60;;;;;;5045173;28;20284;-79
2022/11/11 10:27:28;;;;;;;21.55;17.75;;;11.60;81.30;;;;;;5023170;28;20033;-79
2022/11/11 10:29:54;;;;;;;24.88;18.80;;;11.70;81.10;;;;;;5036640;28;20029;-76
2022/11/11 10:32:33;;;;;;;22.83;19.40;;;11.80;80.40;;;;;;5022331;28;20046;-76
2022/11/11 10:35:16;;;;;;;26.38;19.25;;;11.90;80.50;;;;;;5036942;28;20091;-75
2022/11/11 10:37:42;;;;;;;23.67;17.88;;;12.10;79.70;;;;;;5041512;28;20032;-76
2022/11/11 10:40:21;;;;;;;20.58;17.30;;;12.30;78.90;;;;;;5041497;28;20033;-76
2022/11/11 10:42:47;;;;;;;21.33;17.55;;;12.30;78.30;;;;;;5043331;28;20033;-78
2022/11/11 10:45:25;;;;;;;22.48;17.48;;;12.10;78.60;;;;;;5037870;28;20056;-77
2022/11/11 10:47:54;;;;;;;22.73;17.92;;;12.10;78.70;;;;;;5042277;28;20086;-76
2022/11/11 10:50:30;;;;;;;23.58;17.85;;;12.10;79.30;;;;;;5043550;28;20025;-76
2022/11/11 10:53:34;;;;;;;19.85;15.52;;;12.30;79.10;;;;;;5043446;28;20091;-76
2022/11/11 10:56:00;;;;;;;20.33;14.10;;;12.40;78.80;;;;;;5043357;28;20640;-75
2022/11/11 10:58:42;;;;;;;22.77;15.30;;;12.40;78.10;;;;;;5052667;28;20093;-75
2022/11/11 11:01:12;;;;;;;17.75;14.45;;;12.40;78.20;;;;;;5047298;28;20517;-74
2022/11/11 11:03:57;;;;;;;21.05;14.65;;;12.40;78.30;;;;;;5034684;28;20034;-75
2022/11/11 11:06:27;;;;;;;;;;;12.30;78.70;;;;;;5020500;28;20025;-75
2022/11/11 11:09:16;;;;;;;17.33;12.55;;;12.40;78.30;;;;;;5037743;28;19985;-78
2022/11/11 11:11:51;;;;;;;17.02;12.38;;;12.20;78.40;;;;;;5038744;28;20057;-77
2022/11/11 11:14:38;;;;;;;16.67;12.43;;;12.40;78.60;;;;;;5033250;28;20025;-77
2022/11/11 11:17:15;;;;;;;16.48;12.02;;;12.40;77.60;;;;;;5034390;28;20103;-76
2022/11/11 11:19:41;;;;;;;17.20;11.93;;;12.50;78.00;;;;;;5033752;28;20033;-75
2022/11/11 11:22:07;;;;;;;14.35;11.23;;;12.50;77.70;;;;;;5015657;28;20029;-75
2022/11/11 11:24:36;;;;;;;15.40;11.27;;;12.60;78.00;;;;;;5035997;28;20116;-75
2022/11/11 11:27:06;;;;;;;15.10;10.80;;;12.70;77.00;;;;;;5037702;28;20037;-75
2022/11/11 11:29:38;;;;;;;15.13;10.77;;;12.80;77.00;;;;;;5019648;28;20033;-75
2022/11/11 11:32:26;;;;;;;14.73;10.32;;;13.00;77.10;;;;;;5018353;28;20046;-74
2022/11/11 11:34:55;;;;;;;14.18;9.75;;;13.00;75.80;;;;;;5038697;28;20477;-76
2022/11/11 11:37:24;;;;;;;12.50;9.20;;;13.00;76.00;;;;;;5035110;28;21773;-79
2022/11/11 11:40:02;;;;;;;13.48;9.40;;;13.10;76.30;;;;;;5024309;28;20045;-75
2022/11/11 11:42:36;;;;;;;13.55;9.40;;;13.20;75.80;;;;;;5018171;28;20060;-76
2022/11/11 11:45:20;;;;;;;;;;;13.30;75.70;;;;;;5024014;28;20037;-76
2022/11/11 11:48:03;;;;;;;12.23;8.48;;;13.40;75.30;;;;;;5036509;28;19921;-76
2022/11/11 11:50:32;;;;;;;10.45;7.32;;;13.50;75.30;;;;;;5038103;28;20047;-78
2022/11/11 11:53:23;;;;;;;12.93;7.72;;;13.50;75.60;;;;;;5036774;28;20049;-77
2022/11/11 11:55:55;;;;;;;11.95;7.68;;;13.60;74.90;;;;;;5026111;28;20092;-78
2022/11/11 11:58:45;;;;;;;11.20;7.25;;;13.50;74.40;;;;;;5019762;28;20479;-80
2022/11/11 12:01:34;;;;;;;9.43;6.90;;;13.50;75.00;;;;;;5021827;28;20124;-80
2022/11/11 12:04:21;;;;;;;13.50;7.47;;;13.60;74.70;;;;;;5039861;28;20025;-82
2022/11/11 12:07:20;;;;;;;10.23;5.82;;;13.70;75.00;;;;;;5038963;28;20122;-79
2022/11/11 12:10:09;;;;;;;10.85;6.75;;;13.70;74.90;;;;;;5040111;28;20469;-79
2022/11/11 12:12:43;;;;;;;12.15;7.05;;;13.70;73.90;;;;;;5038438;28;20053;-78
2022/11/11 12:15:41;;;;;;;11.07;5.82;;;13.60;73.60;;;;;;5040194;28;20168;-79
2022/11/11 12:18:26;;;;;;;10.13;6.50;;;13.70;74.00;;;;;;5048292;28;20025;-77
2022/11/11 12:21:07;;;;;;;11.13;6.80;;;13.70;74.00;;;;;;5052170;28;20080;-76
2022/11/11 12:24:06;;;;;;;10.48;6.40;;;13.70;73.80;;;;;;5053509;28;20033;-78
2022/11/11 12:26:54;;;;;;;9.48;6.43;;;13.60;74.20;;;;;;5039047;28;20093;-80
2022/11/11 12:30:04;;;;;;;11.52;6.78;;;13.70;74.10;;;;;;5026723;28;20045;-78
2022/11/11 12:32:57;;;;;;;10.65;6.30;;;13.70;74.30;;;;;;5021968;28;21028;-79
2022/11/11 12:35:30;;;;;;;10.65;6.32;;;13.70;73.90;;;;;;5041404;28;21099;-78
2022/11/11 12:38:14;;;;;;;10.02;6.28;;;13.60;74.00;;;;;;5039046;28;20040;-79
2022/11/11 12:41:01;;;;;;;9.68;6.00;;;13.60;74.20;;;;;;5041565;28;20040;-79
2022/11/11 12:43:40;;;;;;;10.50;6.03;;;13.70;73.80;;;;;;5034756;28;20049;-78
2022/11/11 12:46:38;;;;;;;9.73;6.30;;;13.70;74.10;;;;;;5036290;28;20066;-78
2022/11/11 12:49:38;;;;;;;11.88;6.07;;;13.70;73.60;;;;;;5037540;28;20044;-80
2022/11/11 12:52:31;;;;;;;11.75;6.45;;;13.90;73.60;;;;;;5040793;28;20124;-80
2022/11/11 12:54:56;;;;;;;10.82;6.00;;;13.90;73.30;;;;;;5023118;28;20112;-79
2022/11/11 12:58:01;;;;;;;8.90;6.10;;;13.80;73.30;;;;;;5041385;28;20432;-79
2022/11/11 13:00:27;;;;;;;9.50;6.20;;;13.70;73.80;;;;;;5038416;28;20047;-79
2022/11/11 13:03:10;;;;;;;10.65;6.85;;;13.70;73.70;;;;;;5021141;28;20029;-80
2022/11/11 13:06:18;;;;;;;12.02;6.60;;;13.80;73.70;;;;;;5033557;28;20056;-81
2022/11/11 13:08:49;;;;;;;10.93;6.15;;;13.60;73.50;;;;;;4986659;28;20045;-78
2022/11/11 13:11:34;;;;;;;10.77;6.55;;;13.50;73.90;;;;;;5038217;28;20470;-80
2022/11/11 13:14:22;;;;;;;10.13;5.95;;;13.50;74.40;;;;;;5018676;28;20026;-80
2022/11/11 13:16:51;;;;;;;9.23;6.00;;;13.50;74.80;;;;;;5024248;28;20079;-79
2022/11/11 13:19:40;;;;;;;11.35;6.57;;;13.40;75.10;;;;;;5047722;28;20032;-78
2022/11/11 13:22:25;;;;;;;11.63;6.32;;;13.40;75.30;;;;;;5031746;28;20044;-77
2022/11/11 13:24:51;;;;;;;;;;;13.40;75.60;;;;;;5029483;28;20059;-78
2022/11/11 13:27:38;;;;;;;9.50;5.38;;;13.40;75.20;;;;;;5043875;28;20008;-78
2022/11/11 13:30:16;;;;;;;10.57;6.40;;;13.30;75.30;;;;;;5045945;28;20044;-79
2022/11/11 13:32:50;;;;;;;9.95;6.35;;;13.40;75.30;;;;;;5040923;28;20095;-77
2022/11/11 13:35:33;;;;;;;9.07;6.00;;;13.30;75.60;;;;;;5025869;28;20021;-77
2022/11/11 13:37:59;;;;;;;10.40;6.43;;;13.20;75.40;;;;;;5043686;28;20059;-77
2022/11/11 13:40:44;;;;;;;10.45;6.28;;;13.10;75.90;;;;;;5055174;28;20048;-78
2022/11/11 13:43:22;;;;;;;10.63;7.30;;;13.10;76.10;;;;;;5032234;28;20036;-77
2022/11/11 13:45:51;;;;;;;11.52;7.72;;;13.20;76.30;;;;;;5033982;28;20044;-79
2022/11/11 13:48:30;;;;;;;9.60;6.85;;;13.20;75.70;;;;;;5019982;28;20730;-80
2022/11/11 13:51:17;;;;;;;11.20;6.78;;;13.20;75.70;;;;;;5038616;28;20025;-76
2022/11/11 13:53:46;;;;;;;20.45;14.88;;;13.10;76.10;;;;;;5042245;28;20115;-78
2022/11/11 13:56:24;;;;;;;23.75;16.15;;;13.10;76.50;;;;;;5045493;28;20045;-77
2022/11/11 13:58:52;;;;;;;20.13;13.15;;;13.10;76.20;;;;;;5027412;28;20469;-82
2022/11/11 14:01:17;;;;;;;18.95;14.23;;;13.10;76.00;;;;;;5044942;28;20037;-83
2022/11/11 14:03:43;;;;;;;12.45;10.95;;;13.10;76.20;;;;;;5045171;28;20037;-82
2022/11/11 14:06:14;;;;;;;12.75;8.07;;;13.10;76.10;;;;;;5025337;28;20032;-82
2022/11/11 14:08:46;;;;;;;17.42;9.52;;;13.10;76.20;;;;;;5016910;28;20061;-82
2022/11/11 14:11:24;;;;;;;11.55;7.47;;;13.10;76.20;;;;;;5040300;28;20044;-81
2022/11/11 14:13:51;;;;;;;10.77;7.65;;;13.00;76.50;;;;;;5027315;28;20387;-82